sensor_id;sensor_type;location;lat;lon;timestamp;temperature;humidity
1728;DHT22;861;48.808;9.006;2022-09-01T00:00:11;17.30;99.90
1728;DHT22;861;48.808;9.006;2022-09-01T00:02:39;17.20;99.90
1728;DHT22;861;48.808;9.006;2022-09-01T00:05:08;17.20;99.90
1728;DHT22;861;48.808;9.006;2022-09-01T00:07:35;17.30;99.90
1728;DHT22;861;48.808;9.006;2022-09-01T00:10:06;17.30;99.90
1728;DHT22;861;48.808;9.006;2022-09-01T00:12:34;17.30;99.90
1728;DHT22;861;48.808;9.006;2022-09-01T00:15:05;17.30;99.90
1728;DHT22;861;48.808;9.006;2022-09-01T00:17:34;17.30;99.90
1728;DHT22;861;48.808;9.006;2022-09-01T00:20:02;17.30;99.90
1728;DHT22;861;48.808;9.006;2022-09-01T00:22:29;17.30;99.90
1728;DHT22;861;48.808;9.006;2022-09-01T00:24:55;17.30;99.90
1728;DHT22;861;48.808;9.006;2022-09-01T00:27:22;17.30;99.90
1728;DHT22;861;48.808;9.006;2022-09-01T00:29:48;17.00;99.90
1728;DHT22;861;48.808;9.006;2022-09-01T00:32:14;17.00;99.90
1728;DHT22;861;48.808;9.006;2022-09-01T00:34:40;17.00;99.90
1728;DHT22;861;48.808;9.006;2022-09-01T00:37:07;16.90;99.90
1728;DHT22;861;48.808;9.006;2022-09-01T00:39:34;16.90;99.90
1728;DHT22;861;48.808;9.006;2022-09-01T00:42:01;17.10;99.90
1728;DHT22;861;48.808;9.006;2022-09-01T00:44:28;16.80;99.90
1728;DHT22;861;48.808;9.006;2022-09-01T00:46:55;16.80;99.90
1728;DHT22;861;48.808;9.006;2022-09-01T00:49:39;16.80;99.90
1728;DHT22;861;48.808;9.006;2022-09-01T00:52:33;16.90;99.90
1728;DHT22;861;48.808;9.006;2022-09-01T00:55:26;16.90;99.90
1728;DHT22;861;48.808;9.006;2022-09-01T00:58:01;16.90;99.90
1728;DHT22;861;48.808;9.006;2022-09-01T01:00:37;16.90;99.90
1728;DHT22;861;48.808;9.006;2022-09-01T01:03:11;16.90;99.90
1728;DHT22;861;48.808;9.006;2022-09-01T01:05:50;16.70;99.90
1728;DHT22;861;48.808;9.006;2022-09-01T01:08:29;16.60;99.90
1728;DHT22;861;48.808;9.006;2022-09-01T01:11:11;16.90;99.90
1728;DHT22;861;48.808;9.006;2022-09-01T01:13:59;16.80;99.90
1728;DHT22;861;48.808;9.006;2022-09-01T01:16:48;16.90;99.90
1728;DHT22;861;48.808;9.006;2022-09-01T01:23:39;16.90;99.90
1728;DHT22;861;48.808;9.006;2022-09-01T01:26:19;16.90;99.90
1728;DHT22;861;48.808;9.006;2022-09-01T01:28:45;16.90;99.90
1728;DHT22;861;48.808;9.006;2022-09-01T01:31:17;17.00;99.90
1728;DHT22;861;48.808;9.006;2022-09-01T01:33:54;17.00;99.90
1728;DHT22;861;48.808;9.006;2022-09-01T01:36:29;16.90;99.90
1728;DHT22;861;48.808;9.006;2022-09-01T01:39:13;16.80;99.90
1728;DHT22;861;48.808;9.006;2022-09-01T01:41:52;17.00;99.90
1728;DHT22;861;48.808;9.006;2022-09-01T01:44:25;16.90;99.90
1728;DHT22;861;48.808;9.006;2022-09-01T01:46:56;16.90;99.90
1728;DHT22;861;48.808;9.006;2022-09-01T01:49:26;16.90;99.90
1728;DHT22;861;48.808;9.006;2022-09-01T01:51:56;16.90;99.90
1728;DHT22;861;48.808;9.006;2022-09-01T01:54:25;16.90;99.90
1728;DHT22;861;48.808;9.006;2022-09-01T01:56:58;16.80;99.90
1728;DHT22;861;48.808;9.006;2022-09-01T01:59:26;16.80;99.90
1728;DHT22;861;48.808;9.006;2022-09-01T02:01:54;16.80;99.90
1728;DHT22;861;48.808;9.006;2022-09-01T02:04:22;16.80;99.90
1728;DHT22;861;48.808;9.006;2022-09-01T02:06:49;16.80;99.90
1728;DHT22;861;48.808;9.006;2022-09-01T02:09:19;16.70;99.90
1728;DHT22;861;48.808;9.006;2022-09-01T02:11:48;16.70;99.90
1728;DHT22;861;48.808;9.006;2022-09-01T02:14:18;16.70;99.90
1728;DHT22;861;48.808;9.006;2022-09-01T02:16:47;16.80;99.90
1728;DHT22;861;48.808;9.006;2022-09-01T02:19:15;16.70;99.90
1728;DHT22;861;48.808;9.006;2022-09-01T02:21:45;16.60;99.90
1728;DHT22;861;48.808;9.006;2022-09-01T02:24:21;16.70;99.90
1728;DHT22;861;48.808;9.006;2022-09-01T02:26:49;16.40;99.90
1728;DHT22;861;48.808;9.006;2022-09-01T02:29:20;16.60;99.90
1728;DHT22;861;48.808;9.006;2022-09-01T02:31:55;16.60;99.90
1728;DHT22;861;48.808;9.006;2022-09-01T02:34:25;16.50;99.90
1728;DHT22;861;48.808;9.006;2022-09-01T02:36:56;16.40;99.90
1728;DHT22;861;48.808;9.006;2022-09-01T02:39:31;16.40;99.90
1728;DHT22;861;48.808;9.006;2022-09-01T02:42:00;16.20;99.90
1728;DHT22;861;48.808;9.006;2022-09-01T02:44:29;16.20;99.90
1728;DHT22;861;48.808;9.006;2022-09-01T02:46:56;16.10;99.90
1728;DHT22;861;48.808;9.006;2022-09-01T02:49:24;16.10;99.90
1728;DHT22;861;48.808;9.006;2022-09-01T02:51:55;16.10;99.90
1728;DHT22;861;48.808;9.006;2022-09-01T02:54:28;16.20;99.90
1728;DHT22;861;48.808;9.006;2022-09-01T02:56:57;16.20;99.90
1728;DHT22;861;48.808;9.006;2022-09-01T03:00:09;16.20;99.90
1728;DHT22;861;48.808;9.006;2022-09-01T03:02:49;16.10;99.90
1728;DHT22;861;48.808;9.006;2022-09-01T03:05:24;16.00;99.90
1728;DHT22;861;48.808;9.006;2022-09-01T03:08:09;15.90;99.90
1728;DHT22;861;48.808;9.006;2022-09-01T03:10:43;15.90;99.90
1728;DHT22;861;48.808;9.006;2022-09-01T03:13:22;16.00;99.90
1728;DHT22;861;48.808;9.006;2022-09-01T03:15:49;15.90;99.90
1728;DHT22;861;48.808;9.006;2022-09-01T03:18:16;15.80;99.90
1728;DHT22;861;48.808;9.006;2022-09-01T03:20:46;15.90;99.90
1728;DHT22;861;48.808;9.006;2022-09-01T03:23:16;15.90;99.90
1728;DHT22;861;48.808;9.006;2022-09-01T03:25:46;15.80;99.90
1728;DHT22;861;48.808;9.006;2022-09-01T03:28:14;15.70;99.90
1728;DHT22;861;48.808;9.006;2022-09-01T03:30:51;15.80;99.90
1728;DHT22;861;48.808;9.006;2022-09-01T03:33:25;15.90;99.90
1728;DHT22;861;48.808;9.006;2022-09-01T03:35:54;15.70;99.90
1728;DHT22;861;48.808;9.006;2022-09-01T03:38:23;15.70;99.90
1728;DHT22;861;48.808;9.006;2022-09-01T03:41:03;15.70;99.90
1728;DHT22;861;48.808;9.006;2022-09-01T03:43:33;15.80;99.90
1728;DHT22;861;48.808;9.006;2022-09-01T03:45:59;15.80;99.90
1728;DHT22;861;48.808;9.006;2022-09-01T03:48:28;15.80;99.90
1728;DHT22;861;48.808;9.006;2022-09-01T03:50:59;15.70;99.90
1728;DHT22;861;48.808;9.006;2022-09-01T03:53:33;15.80;99.90
1728;DHT22;861;48.808;9.006;2022-09-01T03:56:04;15.80;99.90
1728;DHT22;861;48.808;9.006;2022-09-01T03:58:32;15.70;99.90
1728;DHT22;861;48.808;9.006;2022-09-01T04:00:59;15.70;99.90
1728;DHT22;861;48.808;9.006;2022-09-01T04:03:31;15.60;99.90
1728;DHT22;861;48.808;9.006;2022-09-01T04:06:01;15.70;99.90
1728;DHT22;861;48.808;9.006;2022-09-01T04:08:28;15.70;99.90
1728;DHT22;861;48.808;9.006;2022-09-01T04:11:00;15.70;99.90
1728;DHT22;861;48.808;9.006;2022-09-01T04:13:40;15.80;99.90
1728;DHT22;861;48.808;9.006;2022-09-01T04:16:22;15.90;99.90
1728;DHT22;861;48.808;9.006;2022-09-01T04:19:16;15.90;99.90
1728;DHT22;861;48.808;9.006;2022-09-01T04:21:56;15.90;99.90
1728;DHT22;861;48.808;9.006;2022-09-01T04:24:29;15.90;99.90
1728;DHT22;861;48.808;9.006;2022-09-01T04:27:01;15.90;99.90
1728;DHT22;861;48.808;9.006;2022-09-01T04:29:30;15.80;99.90
1728;DHT22;861;48.808;9.006;2022-09-01T04:32:06;16.10;99.90
1728;DHT22;861;48.808;9.006;2022-09-01T04:34:38;16.00;99.90
1728;DHT22;861;48.808;9.006;2022-09-01T04:37:20;16.00;99.90
1728;DHT22;861;48.808;9.006;2022-09-01T04:39:53;15.90;99.90
1728;DHT22;861;48.808;9.006;2022-09-01T04:42:23;16.40;99.90
1728;DHT22;861;48.808;9.006;2022-09-01T04:44:55;16.10;99.90
1728;DHT22;861;48.808;9.006;2022-09-01T04:47:22;16.10;99.90
1728;DHT22;861;48.808;9.006;2022-09-01T04:49:59;16.20;99.90
1728;DHT22;861;48.808;9.006;2022-09-01T04:52:27;16.10;99.90
1728;DHT22;861;48.808;9.006;2022-09-01T04:54:54;16.10;99.90
1728;DHT22;861;48.808;9.006;2022-09-01T04:57:21;16.10;99.90
1728;DHT22;861;48.808;9.006;2022-09-01T04:59:48;16.00;99.90
1728;DHT22;861;48.808;9.006;2022-09-01T05:02:15;16.10;99.90
1728;DHT22;861;48.808;9.006;2022-09-01T05:04:41;16.10;99.90
1728;DHT22;861;48.808;9.006;2022-09-01T05:07:11;16.00;99.90
1728;DHT22;861;48.808;9.006;2022-09-01T05:09:39;16.10;99.90
1728;DHT22;861;48.808;9.006;2022-09-01T05:12:06;16.00;99.90
1728;DHT22;861;48.808;9.006;2022-09-01T05:14:41;16.00;99.90
1728;DHT22;861;48.808;9.006;2022-09-01T05:17:13;15.90;99.90
1728;DHT22;861;48.808;9.006;2022-09-01T05:19:45;15.90;99.90
1728;DHT22;861;48.808;9.006;2022-09-01T05:22:16;15.90;99.90
1728;DHT22;861;48.808;9.006;2022-09-01T05:24:46;15.80;99.90
1728;DHT22;861;48.808;9.006;2022-09-01T05:27:16;15.80;99.90
1728;DHT22;861;48.808;9.006;2022-09-01T05:29:44;15.80;99.90
1728;DHT22;861;48.808;9.006;2022-09-01T05:32:11;15.70;99.90
1728;DHT22;861;48.808;9.006;2022-09-01T05:34:41;15.70;99.90
1728;DHT22;861;48.808;9.006;2022-09-01T05:37:09;15.80;99.90
1728;DHT22;861;48.808;9.006;2022-09-01T05:39:38;15.70;99.90
1728;DHT22;861;48.808;9.006;2022-09-01T05:42:06;15.80;99.90
1728;DHT22;861;48.808;9.006;2022-09-01T05:44:37;15.90;99.90
1728;DHT22;861;48.808;9.006;2022-09-01T05:47:10;16.00;99.90
1728;DHT22;861;48.808;9.006;2022-09-01T05:49:37;16.00;99.90
1728;DHT22;861;48.808;9.006;2022-09-01T05:52:04;16.10;99.90
1728;DHT22;861;48.808;9.006;2022-09-01T05:54:34;16.00;99.90
1728;DHT22;861;48.808;9.006;2022-09-01T05:57:00;16.10;99.90
1728;DHT22;861;48.808;9.006;2022-09-01T05:59:28;16.10;99.90
1728;DHT22;861;48.808;9.006;2022-09-01T06:01:57;16.10;99.90
1728;DHT22;861;48.808;9.006;2022-09-01T06:04:25;16.10;99.90
1728;DHT22;861;48.808;9.006;2022-09-01T06:06:59;16.20;99.90
1728;DHT22;861;48.808;9.006;2022-09-01T06:09:25;16.10;99.90
1728;DHT22;861;48.808;9.006;2022-09-01T06:11:52;16.20;99.90
1728;DHT22;861;48.808;9.006;2022-09-01T06:14:19;16.20;99.90
1728;DHT22;861;48.808;9.006;2022-09-01T06:16:46;16.40;99.90
1728;DHT22;861;48.808;9.006;2022-09-01T06:19:12;16.30;99.90
1728;DHT22;861;48.808;9.006;2022-09-01T06:21:39;16.30;99.90
1728;DHT22;861;48.808;9.006;2022-09-01T06:24:06;16.40;99.90
1728;DHT22;861;48.808;9.006;2022-09-01T06:26:36;16.40;99.90
1728;DHT22;861;48.808;9.006;2022-09-01T06:29:09;16.40;99.90
1728;DHT22;861;48.808;9.006;2022-09-01T06:31:40;16.40;99.90
1728;DHT22;861;48.808;9.006;2022-09-01T06:34:11;16.40;99.90
1728;DHT22;861;48.808;9.006;2022-09-01T06:36:45;16.40;99.90
1728;DHT22;861;48.808;9.006;2022-09-01T06:39:15;16.50;99.90
1728;DHT22;861;48.808;9.006;2022-09-01T06:41:48;16.60;99.90
1728;DHT22;861;48.808;9.006;2022-09-01T06:44:19;16.60;99.90
1728;DHT22;861;48.808;9.006;2022-09-01T06:46:52;16.80;99.90
1728;DHT22;861;48.808;9.006;2022-09-01T06:49:20;17.00;99.90
1728;DHT22;861;48.808;9.006;2022-09-01T06:52:02;17.10;99.90
1728;DHT22;861;48.808;9.006;2022-09-01T06:54:30;17.20;99.90
1728;DHT22;861;48.808;9.006;2022-09-01T06:57:02;17.30;99.90
1728;DHT22;861;48.808;9.006;2022-09-01T06:59:30;17.30;99.90
1728;DHT22;861;48.808;9.006;2022-09-01T07:02:01;17.30;99.90
1728;DHT22;861;48.808;9.006;2022-09-01T07:04:29;17.20;99.90
1728;DHT22;861;48.808;9.006;2022-09-01T07:06:56;17.10;99.90
1728;DHT22;861;48.808;9.006;2022-09-01T07:09:23;17.10;99.90
1728;DHT22;861;48.808;9.006;2022-09-01T07:11:49;17.10;99.90
1728;DHT22;861;48.808;9.006;2022-09-01T07:14:18;17.10;99.90
1728;DHT22;861;48.808;9.006;2022-09-01T07:16:45;17.20;99.90
1728;DHT22;861;48.808;9.006;2022-09-01T07:19:12;17.20;99.90
1728;DHT22;861;48.808;9.006;2022-09-01T07:21:42;17.40;99.90
1728;DHT22;861;48.808;9.006;2022-09-01T07:24:11;17.40;99.90
1728;DHT22;861;48.808;9.006;2022-09-01T07:26:40;17.50;99.90
1728;DHT22;861;48.808;9.006;2022-09-01T07:29:07;17.50;99.90
1728;DHT22;861;48.808;9.006;2022-09-01T07:31:41;17.50;99.90
1728;DHT22;861;48.808;9.006;2022-09-01T07:34:12;17.60;99.90
1728;DHT22;861;48.808;9.006;2022-09-01T07:36:43;17.70;99.90
1728;DHT22;861;48.808;9.006;2022-09-01T07:39:12;17.80;99.90
1728;DHT22;861;48.808;9.006;2022-09-01T07:41:40;17.80;99.90
1728;DHT22;861;48.808;9.006;2022-09-01T07:44:09;17.90;99.90
1728;DHT22;861;48.808;9.006;2022-09-01T07:46:38;17.90;99.90
1728;DHT22;861;48.808;9.006;2022-09-01T07:49:07;17.90;99.90
1728;DHT22;861;48.808;9.006;2022-09-01T07:51:34;17.90;99.90
1728;DHT22;861;48.808;9.006;2022-09-01T07:54:01;18.00;99.90
1728;DHT22;861;48.808;9.006;2022-09-01T07:56:28;18.00;99.90
1728;DHT22;861;48.808;9.006;2022-09-01T07:58:56;18.00;99.90
1728;DHT22;861;48.808;9.006;2022-09-01T08:01:27;18.20;99.90
1728;DHT22;861;48.808;9.006;2022-09-01T08:03:59;18.30;99.90
1728;DHT22;861;48.808;9.006;2022-09-01T08:06:28;18.20;99.90
1728;DHT22;861;48.808;9.006;2022-09-01T08:08:58;18.40;99.90
1728;DHT22;861;48.808;9.006;2022-09-01T08:11:30;18.60;99.90
1728;DHT22;861;48.808;9.006;2022-09-01T08:13:58;18.70;99.90
1728;DHT22;861;48.808;9.006;2022-09-01T08:16:30;18.90;99.90
1728;DHT22;861;48.808;9.006;2022-09-01T08:18:58;19.00;99.90
1728;DHT22;861;48.808;9.006;2022-09-01T08:21:26;19.00;99.90
1728;DHT22;861;48.808;9.006;2022-09-01T08:23:54;18.90;99.90
1728;DHT22;861;48.808;9.006;2022-09-01T08:26:25;18.80;99.90
1728;DHT22;861;48.808;9.006;2022-09-01T08:28:53;19.10;99.90
1728;DHT22;861;48.808;9.006;2022-09-01T08:31:23;19.10;99.90
1728;DHT22;861;48.808;9.006;2022-09-01T08:33:51;19.20;99.90
1728;DHT22;861;48.808;9.006;2022-09-01T08:36:18;19.20;99.90
1728;DHT22;861;48.808;9.006;2022-09-01T08:38:45;19.40;99.90
1728;DHT22;861;48.808;9.006;2022-09-01T08:41:42;19.30;99.90
1728;DHT22;861;48.808;9.006;2022-09-01T08:47:32;19.10;99.90
1728;DHT22;861;48.808;9.006;2022-09-01T08:49:59;19.10;99.90
1728;DHT22;861;48.808;9.006;2022-09-01T08:55:53;19.20;99.90
1728;DHT22;861;48.808;9.006;2022-09-01T08:58:23;19.30;99.90
1728;DHT22;861;48.808;9.006;2022-09-01T09:01:03;19.80;99.90
1728;DHT22;861;48.808;9.006;2022-09-01T09:07:35;19.40;99.90
1728;DHT22;861;48.808;9.006;2022-09-01T09:14:21;19.50;99.90
1728;DHT22;861;48.808;9.006;2022-09-01T09:16:55;19.70;99.90
1728;DHT22;861;48.808;9.006;2022-09-01T09:19:32;19.90;99.90
1728;DHT22;861;48.808;9.006;2022-09-01T09:22:08;19.90;99.90
1728;DHT22;861;48.808;9.006;2022-09-01T09:24:58;20.00;99.90
1728;DHT22;861;48.808;9.006;2022-09-01T09:27:39;20.10;99.90
1728;DHT22;861;48.808;9.006;2022-09-01T09:30:23;20.20;99.90
1728;DHT22;861;48.808;9.006;2022-09-01T09:35:36;20.00;99.90
1728;DHT22;861;48.808;9.006;2022-09-01T09:41:09;19.90;99.90
1728;DHT22;861;48.808;9.006;2022-09-01T09:44:24;19.90;99.90
1728;DHT22;861;48.808;9.006;2022-09-01T09:46:55;19.90;99.90
1728;DHT22;861;48.808;9.006;2022-09-01T09:49:33;19.90;99.90
1728;DHT22;861;48.808;9.006;2022-09-01T09:55:14;20.10;99.90
1728;DHT22;861;48.808;9.006;2022-09-01T09:58:10;20.00;99.90
1728;DHT22;861;48.808;9.006;2022-09-01T10:00:37;20.10;99.90
1728;DHT22;861;48.808;9.006;2022-09-01T10:03:12;20.20;99.90
1728;DHT22;861;48.808;9.006;2022-09-01T10:05:48;20.30;99.90
1728;DHT22;861;48.808;9.006;2022-09-01T10:10:59;20.70;99.90
1728;DHT22;861;48.808;9.006;2022-09-01T10:13:27;20.80;99.90
1728;DHT22;861;48.808;9.006;2022-09-01T10:16:00;20.90;99.90
1728;DHT22;861;48.808;9.006;2022-09-01T10:18:41;20.90;99.90
1728;DHT22;861;48.808;9.006;2022-09-01T10:21:21;20.90;99.90
1728;DHT22;861;48.808;9.006;2022-09-01T10:23:59;21.10;99.90
1728;DHT22;861;48.808;9.006;2022-09-01T10:26:56;21.30;99.90
1728;DHT22;861;48.808;9.006;2022-09-01T10:29:42;21.70;99.90
1728;DHT22;861;48.808;9.006;2022-09-01T10:32:54;22.00;99.90
1728;DHT22;861;48.808;9.006;2022-09-01T10:35:40;22.40;99.90
1728;DHT22;861;48.808;9.006;2022-09-01T10:38:23;22.70;99.90
1728;DHT22;861;48.808;9.006;2022-09-01T10:40:57;22.50;99.90
1728;DHT22;861;48.808;9.006;2022-09-01T10:48:52;22.40;99.90
1728;DHT22;861;48.808;9.006;2022-09-01T10:54:06;22.50;99.90
1728;DHT22;861;48.808;9.006;2022-09-01T10:56:48;22.20;99.90
1728;DHT22;861;48.808;9.006;2022-09-01T11:16:34;21.90;99.90
1728;DHT22;861;48.808;9.006;2022-09-01T11:19:45;22.60;99.90
1728;DHT22;861;48.808;9.006;2022-09-01T11:23:10;23.30;99.90
1728;DHT22;861;48.808;9.006;2022-09-01T11:29:00;24.50;99.90
1728;DHT22;861;48.808;9.006;2022-09-01T11:31:46;24.80;99.90
1728;DHT22;861;48.808;9.006;2022-09-01T11:34:19;25.00;99.90
1728;DHT22;861;48.808;9.006;2022-09-01T11:36:58;24.80;99.90
1728;DHT22;861;48.808;9.006;2022-09-01T11:39:42;24.50;99.90
1728;DHT22;861;48.808;9.006;2022-09-01T11:42:39;24.00;99.90
1728;DHT22;861;48.808;9.006;2022-09-01T11:45:25;23.70;99.90
1728;DHT22;861;48.808;9.006;2022-09-01T11:48:09;23.40;99.90
1728;DHT22;861;48.808;9.006;2022-09-01T11:50:41;23.20;99.90
1728;DHT22;861;48.808;9.006;2022-09-01T11:53:13;23.50;99.90
1728;DHT22;861;48.808;9.006;2022-09-01T11:55:51;23.10;99.90
1728;DHT22;861;48.808;9.006;2022-09-01T11:58:33;23.20;99.90
1728;DHT22;861;48.808;9.006;2022-09-01T12:01:22;23.60;99.90
1728;DHT22;861;48.808;9.006;2022-09-01T12:04:29;24.00;99.90
1728;DHT22;861;48.808;9.006;2022-09-01T12:07:10;24.10;99.90
1728;DHT22;861;48.808;9.006;2022-09-01T12:09:52;24.00;99.90
1728;DHT22;861;48.808;9.006;2022-09-01T12:12:39;23.70;99.90
1728;DHT22;861;48.808;9.006;2022-09-01T12:15:23;23.80;99.90
1728;DHT22;861;48.808;9.006;2022-09-01T12:18:14;24.00;99.90
1728;DHT22;861;48.808;9.006;2022-09-01T12:20:56;24.50;99.90
1728;DHT22;861;48.808;9.006;2022-09-01T12:23:35;25.10;99.90
1728;DHT22;861;48.808;9.006;2022-09-01T12:26:11;25.90;99.90
1728;DHT22;861;48.808;9.006;2022-09-01T12:41:46;26.20;99.90
1728;DHT22;861;48.808;9.006;2022-09-01T12:44:54;25.70;99.90
1728;DHT22;861;48.808;9.006;2022-09-01T12:52:53;24.60;99.90
1728;DHT22;861;48.808;9.006;2022-09-01T12:55:28;24.50;99.90
1728;DHT22;861;48.808;9.006;2022-09-01T12:58:03;24.50;99.90
1728;DHT22;861;48.808;9.006;2022-09-01T13:00:58;24.20;99.90
1728;DHT22;861;48.808;9.006;2022-09-01T13:03:31;24.10;99.90
1728;DHT22;861;48.808;9.006;2022-09-01T13:06:02;23.90;99.90
1728;DHT22;861;48.808;9.006;2022-09-01T13:08:33;23.80;99.90
1728;DHT22;861;48.808;9.006;2022-09-01T13:11:12;24.00;99.90
1728;DHT22;861;48.808;9.006;2022-09-01T13:13:43;24.00;99.90
1728;DHT22;861;48.808;9.006;2022-09-01T13:16:10;23.90;99.90
1728;DHT22;861;48.808;9.006;2022-09-01T13:18:42;24.10;99.90
1728;DHT22;861;48.808;9.006;2022-09-01T13:21:11;24.60;99.90
1728;DHT22;861;48.808;9.006;2022-09-01T13:23:38;25.10;99.90
1728;DHT22;861;48.808;9.006;2022-09-01T13:26:05;25.70;99.90
1728;DHT22;861;48.808;9.006;2022-09-01T13:28:31;26.00;99.90
1728;DHT22;861;48.808;9.006;2022-09-01T13:31:03;26.30;99.90
1728;DHT22;861;48.808;9.006;2022-09-01T13:33:33;26.70;99.60
1728;DHT22;861;48.808;9.006;2022-09-01T13:36:03;26.20;98.90
1728;DHT22;861;48.808;9.006;2022-09-01T13:38:31;26.30;99.30
1728;DHT22;861;48.808;9.006;2022-09-01T13:41:01;26.20;99.90
1728;DHT22;861;48.808;9.006;2022-09-01T13:43:28;27.10;99.10
1728;DHT22;861;48.808;9.006;2022-09-01T13:48:22;27.40;96.80
1728;DHT22;861;48.808;9.006;2022-09-01T13:50:51;27.40;97.60
1728;DHT22;861;48.808;9.006;2022-09-01T13:53:18;27.30;96.10
1728;DHT22;861;48.808;9.006;2022-09-01T13:55:45;27.30;94.30
1728;DHT22;861;48.808;9.006;2022-09-01T13:58:11;26.90;95.60
1728;DHT22;861;48.808;9.006;2022-09-01T14:00:44;27.40;95.30
1728;DHT22;861;48.808;9.006;2022-09-01T14:30:48;27.90;91.70
1728;DHT22;861;48.808;9.006;2022-09-01T14:33:18;27.50;92.60
1728;DHT22;861;48.808;9.006;2022-09-01T14:35:49;27.10;92.90
1728;DHT22;861;48.808;9.006;2022-09-01T14:38:15;26.90;93.40
1728;DHT22;861;48.808;9.006;2022-09-01T14:40:47;26.50;93.80
1728;DHT22;861;48.808;9.006;2022-09-01T14:43:13;26.40;94.80
1728;DHT22;861;48.808;9.006;2022-09-01T14:45:41;26.20;95.20
1728;DHT22;861;48.808;9.006;2022-09-01T14:48:15;26.10;95.20
1728;DHT22;861;48.808;9.006;2022-09-01T14:53:23;26.10;94.30
1728;DHT22;861;48.808;9.006;2022-09-01T14:55:49;26.30;94.20
1728;DHT22;861;48.808;9.006;2022-09-01T14:58:16;26.50;94.00
1728;DHT22;861;48.808;9.006;2022-09-01T15:00:42;26.60;92.70
1728;DHT22;861;48.808;9.006;2022-09-01T15:03:08;26.90;92.70
1728;DHT22;861;48.808;9.006;2022-09-01T15:05:36;27.20;92.40
1728;DHT22;861;48.808;9.006;2022-09-01T15:08:04;27.50;92.40
1728;DHT22;861;48.808;9.006;2022-09-01T15:10:31;27.70;91.40
1728;DHT22;861;48.808;9.006;2022-09-01T15:13:00;27.90;92.00
1728;DHT22;861;48.808;9.006;2022-09-01T15:15:29;28.40;91.20
1728;DHT22;861;48.808;9.006;2022-09-01T15:18:00;28.50;91.20
1728;DHT22;861;48.808;9.006;2022-09-01T15:20:29;28.40;94.60
1728;DHT22;861;48.808;9.006;2022-09-01T15:23:21;28.50;91.10
1728;DHT22;861;48.808;9.006;2022-09-01T15:25:53;28.60;90.60
1728;DHT22;861;48.808;9.006;2022-09-01T15:28:24;28.40;89.70
1728;DHT22;861;48.808;9.006;2022-09-01T15:30:52;28.60;87.80
1728;DHT22;861;48.808;9.006;2022-09-01T15:33:20;28.80;88.70
1728;DHT22;861;48.808;9.006;2022-09-01T15:35:46;28.90;86.20
1728;DHT22;861;48.808;9.006;2022-09-01T15:38:15;29.00;83.70
1728;DHT22;861;48.808;9.006;2022-09-01T15:40:43;29.00;83.70
1728;DHT22;861;48.808;9.006;2022-09-01T15:43:13;29.10;84.10
1728;DHT22;861;48.808;9.006;2022-09-01T15:45:40;29.10;84.60
1728;DHT22;861;48.808;9.006;2022-09-01T15:48:06;29.10;83.30
1728;DHT22;861;48.808;9.006;2022-09-01T15:50:32;29.00;83.00
1728;DHT22;861;48.808;9.006;2022-09-01T15:53:02;28.90;82.10
1728;DHT22;861;48.808;9.006;2022-09-01T15:55:47;28.80;80.30
1728;DHT22;861;48.808;9.006;2022-09-01T15:58:18;28.60;80.90
1728;DHT22;861;48.808;9.006;2022-09-01T16:00:45;28.50;82.10
1728;DHT22;861;48.808;9.006;2022-09-01T16:03:11;28.60;82.00
1728;DHT22;861;48.808;9.006;2022-09-01T16:05:40;28.60;81.70
1728;DHT22;861;48.808;9.006;2022-09-01T16:08:08;28.40;81.60
1728;DHT22;861;48.808;9.006;2022-09-01T16:10:39;28.30;82.10
1728;DHT22;861;48.808;9.006;2022-09-01T16:13:07;28.10;83.30
1728;DHT22;861;48.808;9.006;2022-09-01T16:15:48;27.90;82.50
1728;DHT22;861;48.808;9.006;2022-09-01T16:18:45;27.70;82.60
1728;DHT22;861;48.808;9.006;2022-09-01T16:30:49;26.60;86.70
1728;DHT22;861;48.808;9.006;2022-09-01T16:33:22;26.40;88.00
1728;DHT22;861;48.808;9.006;2022-09-01T16:36:23;26.20;88.40
1728;DHT22;861;48.808;9.006;2022-09-01T16:42:39;25.70;89.90
1728;DHT22;861;48.808;9.006;2022-09-01T16:46:06;25.50;87.90
1728;DHT22;861;48.808;9.006;2022-09-01T16:52:25;25.40;90.50
1728;DHT22;861;48.808;9.006;2022-09-01T16:55:40;25.40;91.50
1728;DHT22;861;48.808;9.006;2022-09-01T17:04:31;25.00;91.70
1728;DHT22;861;48.808;9.006;2022-09-01T17:10:30;24.80;91.90
1728;DHT22;861;48.808;9.006;2022-09-01T17:13:23;24.80;92.30
1728;DHT22;861;48.808;9.006;2022-09-01T17:16:33;24.70;91.80
1728;DHT22;861;48.808;9.006;2022-09-01T17:19:17;24.60;92.10
1728;DHT22;861;48.808;9.006;2022-09-01T17:22:03;24.50;92.30
1728;DHT22;861;48.808;9.006;2022-09-01T17:27:35;24.30;93.10
1728;DHT22;861;48.808;9.006;2022-09-01T17:30:13;24.20;93.20
1728;DHT22;861;48.808;9.006;2022-09-01T17:42:12;23.60;94.80
1728;DHT22;861;48.808;9.006;2022-09-01T17:51:26;23.50;94.80
1728;DHT22;861;48.808;9.006;2022-09-01T17:54:57;23.40;95.60
1728;DHT22;861;48.808;9.006;2022-09-01T18:00:39;23.10;95.60
1728;DHT22;861;48.808;9.006;2022-09-01T18:03:36;23.20;96.10
1728;DHT22;861;48.808;9.006;2022-09-01T18:06:40;23.00;95.60
1728;DHT22;861;48.808;9.006;2022-09-01T18:09:29;22.90;96.10
1728;DHT22;861;48.808;9.006;2022-09-01T18:12:24;22.80;96.30
1728;DHT22;861;48.808;9.006;2022-09-01T18:15:14;22.70;96.10
1728;DHT22;861;48.808;9.006;2022-09-01T18:18:02;22.70;96.60
1728;DHT22;861;48.808;9.006;2022-09-01T18:20:55;22.60;96.30
1728;DHT22;861;48.808;9.006;2022-09-01T18:23:36;22.60;96.70
1728;DHT22;861;48.808;9.006;2022-09-01T18:29:04;22.50;96.10
1728;DHT22;861;48.808;9.006;2022-09-01T18:37:55;22.20;96.20
1728;DHT22;861;48.808;9.006;2022-09-01T18:50:05;21.90;96.40
1728;DHT22;861;48.808;9.006;2022-09-01T19:05:18;21.80;97.00
1728;DHT22;861;48.808;9.006;2022-09-01T19:11:53;21.70;97.50
1728;DHT22;861;48.808;9.006;2022-09-01T19:15:00;21.70;97.30
1728;DHT22;861;48.808;9.006;2022-09-01T19:18:08;21.60;97.70
1728;DHT22;861;48.808;9.006;2022-09-01T19:21:33;21.60;98.00
1728;DHT22;861;48.808;9.006;2022-09-01T19:23:53;21.50;98.10
1728;DHT22;861;48.808;9.006;2022-09-01T19:26:45;21.50;98.10
1728;DHT22;861;48.808;9.006;2022-09-01T19:29:35;21.40;98.40
1728;DHT22;861;48.808;9.006;2022-09-01T19:32:18;21.30;98.40
1728;DHT22;861;48.808;9.006;2022-09-01T19:35:08;21.30;98.50
1728;DHT22;861;48.808;9.006;2022-09-01T19:37:40;21.20;99.10
1728;DHT22;861;48.808;9.006;2022-09-01T19:40:10;21.30;99.90
1728;DHT22;861;48.808;9.006;2022-09-01T19:48:43;21.00;99.90
1728;DHT22;861;48.808;9.006;2022-09-01T19:51:39;21.00;99.90
1728;DHT22;861;48.808;9.006;2022-09-01T19:57:37;20.60;99.90
1728;DHT22;861;48.808;9.006;2022-09-01T20:00:24;20.60;99.90
1728;DHT22;861;48.808;9.006;2022-09-01T20:03:28;20.60;99.90
1728;DHT22;861;48.808;9.006;2022-09-01T20:09:15;20.50;99.90
1728;DHT22;861;48.808;9.006;2022-09-01T20:12:39;20.50;99.90
1728;DHT22;861;48.808;9.006;2022-09-01T20:15:33;20.50;99.90
1728;DHT22;861;48.808;9.006;2022-09-01T20:19:10;20.40;99.90
1728;DHT22;861;48.808;9.006;2022-09-01T20:21:47;20.40;99.90
1728;DHT22;861;48.808;9.006;2022-09-01T20:27:12;20.30;99.90
1728;DHT22;861;48.808;9.006;2022-09-01T20:30:17;20.30;99.90
1728;DHT22;861;48.808;9.006;2022-09-01T20:39:37;19.80;99.90
1728;DHT22;861;48.808;9.006;2022-09-01T20:45:49;19.40;99.90
1728;DHT22;861;48.808;9.006;2022-09-01T20:48:25;19.40;99.90